sensor_id;sensor_type;location;lat;lon;timestamp;P1;durP1;ratioP1;P2;durP2;ratioP2
78772;SDS011;68111;44.728;11.290;2023-08-08T00:01:28;2.00;;;1.20;;
78772;SDS011;68111;44.728;11.290;2023-08-08T00:03:55;2.25;;;1.30;;
78772;SDS011;68111;44.728;11.290;2023-08-08T00:06:22;4.15;;;1.10;;
78772;SDS011;68111;44.728;11.290;2023-08-08T00:08:49;2.92;;;1.10;;
78772;SDS011;68111;44.728;11.290;2023-08-08T00:11:16;4.63;;;0.90;;
78772;SDS011;68111;44.728;11.290;2023-08-08T00:13:42;3.45;;;1.17;;
78772;SDS011;68111;44.728;11.290;2023-08-08T00:16:09;1.08;;;0.80;;
78772;SDS011;68111;44.728;11.290;2023-08-08T00:18:36;1.48;;;1.00;;
78772;SDS011;68111;44.728;11.290;2023-08-08T00:21:03;2.90;;;0.90;;
78772;SDS011;68111;44.728;11.290;2023-08-08T00:23:30;1.70;;;1.02;;
78772;SDS011;68111;44.728;11.290;2023-08-08T00:25:56;2.25;;;0.95;;
78772;SDS011;68111;44.728;11.290;2023-08-08T00:28:23;1.55;;;1.10;;
78772;SDS011;68111;44.728;11.290;2023-08-08T00:30:50;1.50;;;1.10;;
78772;SDS011;68111;44.728;11.290;2023-08-08T00:33:17;3.08;;;1.10;;
78772;SDS011;68111;44.728;11.290;2023-08-08T00:35:43;1.63;;;0.90;;
78772;SDS011;68111;44.728;11.290;2023-08-08T00:38:11;2.55;;;1.00;;
78772;SDS011;68111;44.728;11.290;2023-08-08T00:40:37;3.03;;;1.15;;
78772;SDS011;68111;44.728;11.290;2023-08-08T00:43:04;2.42;;;1.10;;
78772;SDS011;68111;44.728;11.290;2023-08-08T00:45:31;2.30;;;1.00;;
78772;SDS011;68111;44.728;11.290;2023-08-08T00:47:58;2.75;;;1.15;;
78772;SDS011;68111;44.728;11.290;2023-08-08T00:50:25;2.75;;;0.93;;
78772;SDS011;68111;44.728;11.290;2023-08-08T00:52:51;2.10;;;1.00;;
78772;SDS011;68111;44.728;11.290;2023-08-08T00:55:18;2.13;;;0.90;;
78772;SDS011;68111;44.728;11.290;2023-08-08T00:57:45;2.65;;;0.95;;
78772;SDS011;68111;44.728;11.290;2023-08-08T01:00:12;1.80;;;0.90;;
78772;SDS011;68111;44.728;11.290;2023-08-08T01:02:39;2.00;;;0.90;;
78772;SDS011;68111;44.728;11.290;2023-08-08T01:05:06;2.60;;;1.00;;
78772;SDS011;68111;44.728;11.290;2023-08-08T01:10:45;1.60;;;0.90;;
78772;SDS011;68111;44.728;11.290;2023-08-08T01:13:14;2.33;;;1.10;;
78772;SDS011;68111;44.728;11.290;2023-08-08T01:15:44;2.10;;;0.80;;
78772;SDS011;68111;44.728;11.290;2023-08-08T01:18:14;1.00;;;0.90;;
78772;SDS011;68111;44.728;11.290;2023-08-08T01:20:42;1.73;;;0.90;;
78772;SDS011;68111;44.728;11.290;2023-08-08T01:23:15;2.97;;;1.23;;
78772;SDS011;68111;44.728;11.290;2023-08-08T01:25:42;1.23;;;1.00;;
78772;SDS011;68111;44.728;11.290;2023-08-08T01:28:10;1.65;;;1.17;;
78772;SDS011;68111;44.728;11.290;2023-08-08T01:30:36;5.03;;;1.10;;
78772;SDS011;68111;44.728;11.290;2023-08-08T01:33:04;2.65;;;0.93;;
78772;SDS011;68111;44.728;11.290;2023-08-08T01:35:31;2.95;;;1.00;;
78772;SDS011;68111;44.728;11.290;2023-08-08T01:38:09;2.13;;;0.98;;
78772;SDS011;68111;44.728;11.290;2023-08-08T01:41:06;3.13;;;1.02;;
78772;SDS011;68111;44.728;11.290;2023-08-08T01:43:34;3.53;;;0.90;;
78772;SDS011;68111;44.728;11.290;2023-08-08T01:46:04;3.33;;;1.00;;
78772;SDS011;68111;44.728;11.290;2023-08-08T01:48:32;3.15;;;1.00;;
78772;SDS011;68111;44.728;11.290;2023-08-08T01:50:59;2.53;;;1.10;;
78772;SDS011;68111;44.728;11.290;2023-08-08T01:53:26;3.03;;;1.00;;
78772;SDS011;68111;44.728;11.290;2023-08-08T01:55:53;1.63;;;1.10;;
78772;SDS011;68111;44.728;11.290;2023-08-08T01:58:20;2.95;;;1.00;;
78772;SDS011;68111;44.728;11.290;2023-08-08T02:00:46;2.17;;;1.13;;
78772;SDS011;68111;44.728;11.290;2023-08-08T02:03:13;2.05;;;1.10;;
78772;SDS011;68111;44.728;11.290;2023-08-08T02:05:42;1.80;;;0.90;;
78772;SDS011;68111;44.728;11.290;2023-08-08T02:08:08;3.42;;;1.10;;
78772;SDS011;68111;44.728;11.290;2023-08-08T02:10:36;2.60;;;0.90;;
78772;SDS011;68111;44.728;11.290;2023-08-08T02:13:02;1.63;;;0.93;;
78772;SDS011;68111;44.728;11.290;2023-08-08T02:15:29;2.38;;;1.00;;
78772;SDS011;68111;44.728;11.290;2023-08-08T02:17:57;2.67;;;1.15;;
78772;SDS011;68111;44.728;11.290;2023-08-08T02:20:24;1.80;;;1.10;;
78772;SDS011;68111;44.728;11.290;2023-08-08T02:22:51;2.72;;;0.90;;
78772;SDS011;68111;44.728;11.290;2023-08-08T02:25:18;2.88;;;1.10;;
78772;SDS011;68111;44.728;11.290;2023-08-08T02:27:45;2.88;;;1.08;;
78772;SDS011;68111;44.728;11.290;2023-08-08T02:30:12;2.63;;;1.20;;
78772;SDS011;68111;44.728;11.290;2023-08-08T02:32:39;3.08;;;1.20;;
78772;SDS011;68111;44.728;11.290;2023-08-08T02:35:06;1.90;;;0.95;;
78772;SDS011;68111;44.728;11.290;2023-08-08T02:37:33;3.72;;;1.23;;
78772;SDS011;68111;44.728;11.290;2023-08-08T02:40:00;2.28;;;1.17;;
78772;SDS011;68111;44.728;11.290;2023-08-08T02:42:26;3.00;;;1.10;;
78772;SDS011;68111;44.728;11.290;2023-08-08T02:44:53;3.45;;;1.20;;
78772;SDS011;68111;44.728;11.290;2023-08-08T02:47:20;1.70;;;1.10;;
78772;SDS011;68111;44.728;11.290;2023-08-08T02:49:47;2.15;;;1.25;;
78772;SDS011;68111;44.728;11.290;2023-08-08T02:52:14;2.83;;;1.00;;
78772;SDS011;68111;44.728;11.290;2023-08-08T02:54:41;3.08;;;0.98;;
78772;SDS011;68111;44.728;11.290;2023-08-08T02:57:08;2.17;;;1.20;;
78772;SDS011;68111;44.728;11.290;2023-08-08T02:59:37;2.00;;;0.95;;
78772;SDS011;68111;44.728;11.290;2023-08-08T03:02:06;1.70;;;1.10;;
78772;SDS011;68111;44.728;11.290;2023-08-08T03:04:34;1.63;;;0.93;;
78772;SDS011;68111;44.728;11.290;2023-08-08T03:07:02;2.85;;;1.20;;
78772;SDS011;68111;44.728;11.290;2023-08-08T03:09:32;2.05;;;1.00;;
78772;SDS011;68111;44.728;11.290;2023-08-08T03:11:58;2.08;;;0.90;;
78772;SDS011;68111;44.728;11.290;2023-08-08T03:14:44;2.03;;;0.98;;
78772;SDS011;68111;44.728;11.290;2023-08-08T03:17:11;3.35;;;0.95;;
78772;SDS011;68111;44.728;11.290;2023-08-08T03:19:40;1.58;;;0.90;;
78772;SDS011;68111;44.728;11.290;2023-08-08T03:22:07;2.47;;;1.00;;
78772;SDS011;68111;44.728;11.290;2023-08-08T03:24:36;2.05;;;0.98;;
78772;SDS011;68111;44.728;11.290;2023-08-08T03:27:03;1.00;;;0.80;;
78772;SDS011;68111;44.728;11.290;2023-08-08T03:29:30;2.28;;;1.00;;
78772;SDS011;68111;44.728;11.290;2023-08-08T03:31:58;2.00;;;1.02;;
78772;SDS011;68111;44.728;11.290;2023-08-08T03:34:28;3.90;;;1.15;;
78772;SDS011;68111;44.728;11.290;2023-08-08T03:36:55;3.22;;;1.00;;
78772;SDS011;68111;44.728;11.290;2023-08-08T03:39:22;3.22;;;0.90;;
78772;SDS011;68111;44.728;11.290;2023-08-08T03:41:49;1.52;;;0.90;;
78772;SDS011;68111;44.728;11.290;2023-08-08T03:44:17;1.05;;;0.93;;
78772;SDS011;68111;44.728;11.290;2023-08-08T03:46:44;2.38;;;1.15;;
78772;SDS011;68111;44.728;11.290;2023-08-08T03:49:12;2.03;;;0.93;;
78772;SDS011;68111;44.728;11.290;2023-08-08T03:51:39;1.98;;;1.00;;
78772;SDS011;68111;44.728;11.290;2023-08-08T03:54:06;1.67;;;0.90;;
78772;SDS011;68111;44.728;11.290;2023-08-08T03:56:32;1.10;;;0.90;;
78772;SDS011;68111;44.728;11.290;2023-08-08T03:58:59;2.67;;;1.15;;
78772;SDS011;68111;44.728;11.290;2023-08-08T04:01:26;3.03;;;1.08;;
78772;SDS011;68111;44.728;11.290;2023-08-08T04:03:54;3.05;;;0.90;;
78772;SDS011;68111;44.728;11.290;2023-08-08T04:06:21;3.72;;;1.20;;
78772;SDS011;68111;44.728;11.290;2023-08-08T04:08:48;2.70;;;1.10;;
78772;SDS011;68111;44.728;11.290;2023-08-08T04:11:15;4.15;;;1.35;;
78772;SDS011;68111;44.728;11.290;2023-08-08T04:13:41;1.50;;;0.90;;
78772;SDS011;68111;44.728;11.290;2023-08-08T04:16:08;1.70;;;0.93;;
78772;SDS011;68111;44.728;11.290;2023-08-08T04:18:35;5.80;;;1.27;;
78772;SDS011;68111;44.728;11.290;2023-08-08T04:21:01;1.90;;;1.00;;
78772;SDS011;68111;44.728;11.290;2023-08-08T04:23:28;1.25;;;0.90;;
78772;SDS011;68111;44.728;11.290;2023-08-08T04:25:55;3.45;;;1.20;;
78772;SDS011;68111;44.728;11.290;2023-08-08T04:28:22;2.35;;;1.30;;
78772;SDS011;68111;44.728;11.290;2023-08-08T04:30:48;2.33;;;1.30;;
78772;SDS011;68111;44.728;11.290;2023-08-08T04:33:15;3.83;;;1.10;;
78772;SDS011;68111;44.728;11.290;2023-08-08T04:35:42;1.60;;;0.90;;
78772;SDS011;68111;44.728;11.290;2023-08-08T04:38:09;2.47;;;1.00;;
78772;SDS011;68111;44.728;11.290;2023-08-08T04:40:36;2.90;;;0.98;;
78772;SDS011;68111;44.728;11.290;2023-08-08T04:43:04;2.22;;;0.98;;
78772;SDS011;68111;44.728;11.290;2023-08-08T04:45:31;2.85;;;1.00;;
78772;SDS011;68111;44.728;11.290;2023-08-08T04:47:58;2.38;;;0.98;;
78772;SDS011;68111;44.728;11.290;2023-08-08T04:50:25;3.30;;;1.13;;
78772;SDS011;68111;44.728;11.290;2023-08-08T04:52:52;3.08;;;1.02;;
78772;SDS011;68111;44.728;11.290;2023-08-08T04:55:19;4.43;;;1.15;;
78772;SDS011;68111;44.728;11.290;2023-08-08T04:57:45;1.55;;;1.10;;
78772;SDS011;68111;44.728;11.290;2023-08-08T05:00:13;1.67;;;1.10;;
78772;SDS011;68111;44.728;11.290;2023-08-08T05:02:40;2.97;;;1.00;;
78772;SDS011;68111;44.728;11.290;2023-08-08T05:05:07;4.07;;;1.20;;
78772;SDS011;68111;44.728;11.290;2023-08-08T05:07:35;2.97;;;1.20;;
78772;SDS011;68111;44.728;11.290;2023-08-08T05:10:04;2.47;;;1.10;;
78772;SDS011;68111;44.728;11.290;2023-08-08T05:12:31;1.77;;;1.02;;
78772;SDS011;68111;44.728;11.290;2023-08-08T05:14:58;4.43;;;1.15;;
78772;SDS011;68111;44.728;11.290;2023-08-08T05:17:24;1.75;;;1.00;;
78772;SDS011;68111;44.728;11.290;2023-08-08T05:19:51;4.93;;;1.10;;
78772;SDS011;68111;44.728;11.290;2023-08-08T05:22:18;1.70;;;1.10;;
78772;SDS011;68111;44.728;11.290;2023-08-08T05:24:44;2.10;;;1.10;;
78772;SDS011;68111;44.728;11.290;2023-08-08T05:27:11;2.30;;;1.25;;
78772;SDS011;68111;44.728;11.290;2023-08-08T05:29:38;3.35;;;1.17;;
78772;SDS011;68111;44.728;11.290;2023-08-08T05:32:05;2.72;;;1.20;;
78772;SDS011;68111;44.728;11.290;2023-08-08T05:34:33;3.65;;;1.38;;
78772;SDS011;68111;44.728;11.290;2023-08-08T05:37:00;2.85;;;1.30;;
78772;SDS011;68111;44.728;11.290;2023-08-08T05:39:42;2.00;;;1.15;;
78772;SDS011;68111;44.728;11.290;2023-08-08T05:42:09;3.75;;;1.27;;
78772;SDS011;68111;44.728;11.290;2023-08-08T05:44:36;2.30;;;1.10;;
78772;SDS011;68111;44.728;11.290;2023-08-08T05:47:02;3.13;;;1.20;;
78772;SDS011;68111;44.728;11.290;2023-08-08T05:49:29;3.13;;;1.42;;
78772;SDS011;68111;44.728;11.290;2023-08-08T05:51:56;6.00;;;1.63;;
78772;SDS011;68111;44.728;11.290;2023-08-08T05:54:23;4.72;;;1.42;;
78772;SDS011;68111;44.728;11.290;2023-08-08T05:56:49;2.60;;;1.30;;
78772;SDS011;68111;44.728;11.290;2023-08-08T05:59:16;3.80;;;1.15;;
78772;SDS011;68111;44.728;11.290;2023-08-08T06:01:43;5.40;;;1.30;;
78772;SDS011;68111;44.728;11.290;2023-08-08T06:04:11;4.22;;;2.38;;
78772;SDS011;68111;44.728;11.290;2023-08-08T06:06:38;3.58;;;1.50;;
78772;SDS011;68111;44.728;11.290;2023-08-08T06:09:04;3.33;;;1.38;;
78772;SDS011;68111;44.728;11.290;2023-08-08T06:11:31;3.70;;;1.20;;
78772;SDS011;68111;44.728;11.290;2023-08-08T06:13:58;2.58;;;1.10;;
78772;SDS011;68111;44.728;11.290;2023-08-08T06:16:25;3.25;;;1.23;;
78772;SDS011;68111;44.728;11.290;2023-08-08T06:18:52;6.28;;;1.30;;
78772;SDS011;68111;44.728;11.290;2023-08-08T06:21:19;3.70;;;1.15;;
78772;SDS011;68111;44.728;11.290;2023-08-08T06:23:46;3.42;;;1.40;;
78772;SDS011;68111;44.728;11.290;2023-08-08T06:26:14;3.33;;;1.48;;
78772;SDS011;68111;44.728;11.290;2023-08-08T06:28:41;8.98;;;1.60;;
78772;SDS011;68111;44.728;11.290;2023-08-08T06:31:07;5.32;;;1.40;;
78772;SDS011;68111;44.728;11.290;2023-08-08T06:33:34;4.95;;;1.50;;
78772;SDS011;68111;44.728;11.290;2023-08-08T06:36:01;5.40;;;1.65;;
78772;SDS011;68111;44.728;11.290;2023-08-08T06:38:29;3.53;;;1.40;;
78772;SDS011;68111;44.728;11.290;2023-08-08T06:41:00;2.35;;;1.27;;
78772;SDS011;68111;44.728;11.290;2023-08-08T06:43:29;5.18;;;1.60;;
78772;SDS011;68111;44.728;11.290;2023-08-08T06:45:57;3.28;;;1.50;;
78772;SDS011;68111;44.728;11.290;2023-08-08T06:48:24;2.40;;;1.33;;
78772;SDS011;68111;44.728;11.290;2023-08-08T06:50:50;4.05;;;1.60;;
78772;SDS011;68111;44.728;11.290;2023-08-08T06:53:17;5.90;;;1.70;;
78772;SDS011;68111;44.728;11.290;2023-08-08T06:55:44;5.85;;;2.10;;
78772;SDS011;68111;44.728;11.290;2023-08-08T06:58:11;4.30;;;1.55;;
78772;SDS011;68111;44.728;11.290;2023-08-08T07:00:38;3.30;;;1.50;;
78772;SDS011;68111;44.728;11.290;2023-08-08T07:03:04;5.43;;;1.63;;
78772;SDS011;68111;44.728;11.290;2023-08-08T07:05:31;3.05;;;1.42;;
78772;SDS011;68111;44.728;11.290;2023-08-08T07:07:58;5.13;;;1.70;;
78772;SDS011;68111;44.728;11.290;2023-08-08T07:10:25;9.02;;;1.98;;
78772;SDS011;68111;44.728;11.290;2023-08-08T07:12:53;3.80;;;1.70;;
78772;SDS011;68111;44.728;11.290;2023-08-08T07:15:20;7.10;;;1.95;;
78772;SDS011;68111;44.728;11.290;2023-08-08T07:17:48;3.80;;;1.58;;
78772;SDS011;68111;44.728;11.290;2023-08-08T07:20:15;5.43;;;1.73;;
78772;SDS011;68111;44.728;11.290;2023-08-08T07:22:43;3.47;;;1.88;;
78772;SDS011;68111;44.728;11.290;2023-08-08T07:25:10;8.27;;;1.95;;
78772;SDS011;68111;44.728;11.290;2023-08-08T07:27:37;4.35;;;1.85;;
78772;SDS011;68111;44.728;11.290;2023-08-08T07:30:05;14.32;;;2.97;;
78772;SDS011;68111;44.728;11.290;2023-08-08T07:32:33;5.20;;;2.50;;
78772;SDS011;68111;44.728;11.290;2023-08-08T07:35:00;6.22;;;2.35;;
78772;SDS011;68111;44.728;11.290;2023-08-08T07:37:29;6.20;;;2.38;;
78772;SDS011;68111;44.728;11.290;2023-08-08T07:39:56;8.82;;;2.65;;
78772;SDS011;68111;44.728;11.290;2023-08-08T07:42:22;6.28;;;2.60;;
78772;SDS011;68111;44.728;11.290;2023-08-08T07:44:49;6.88;;;3.20;;
78772;SDS011;68111;44.728;11.290;2023-08-08T07:47:16;5.32;;;2.88;;
78772;SDS011;68111;44.728;11.290;2023-08-08T07:49:43;7.90;;;3.40;;
78772;SDS011;68111;44.728;11.290;2023-08-08T07:52:10;5.88;;;3.10;;
78772;SDS011;68111;44.728;11.290;2023-08-08T07:54:36;6.97;;;3.10;;
78772;SDS011;68111;44.728;11.290;2023-08-08T07:57:03;8.77;;;3.03;;
78772;SDS011;68111;44.728;11.290;2023-08-08T07:59:30;7.57;;;3.05;;
78772;SDS011;68111;44.728;11.290;2023-08-08T08:01:57;7.72;;;3.80;;
78772;SDS011;68111;44.728;11.290;2023-08-08T08:04:24;5.47;;;2.28;;
78772;SDS011;68111;44.728;11.290;2023-08-08T08:06:50;3.70;;;2.08;;
78772;SDS011;68111;44.728;11.290;2023-08-08T08:09:17;7.15;;;3.15;;
78772;SDS011;68111;44.728;11.290;2023-08-08T08:11:44;6.40;;;3.58;;
78772;SDS011;68111;44.728;11.290;2023-08-08T08:14:11;5.40;;;2.75;;
78772;SDS011;68111;44.728;11.290;2023-08-08T08:16:38;7.28;;;2.55;;
78772;SDS011;68111;44.728;11.290;2023-08-08T08:19:05;6.47;;;3.55;;
78772;SDS011;68111;44.728;11.290;2023-08-08T08:21:32;5.65;;;2.58;;
78772;SDS011;68111;44.728;11.290;2023-08-08T08:23:58;5.65;;;2.67;;
78772;SDS011;68111;44.728;11.290;2023-08-08T08:26:25;6.18;;;3.22;;
78772;SDS011;68111;44.728;11.290;2023-08-08T08:28:52;9.23;;;3.38;;
78772;SDS011;68111;44.728;11.290;2023-08-08T08:31:22;7.88;;;3.97;;
78772;SDS011;68111;44.728;11.290;2023-08-08T08:33:50;8.18;;;3.20;;
78772;SDS011;68111;44.728;11.290;2023-08-08T08:36:17;6.85;;;2.42;;
78772;SDS011;68111;44.728;11.290;2023-08-08T08:38:44;5.30;;;2.22;;
78772;SDS011;68111;44.728;11.290;2023-08-08T08:41:11;4.80;;;2.20;;
78772;SDS011;68111;44.728;11.290;2023-08-08T08:43:41;3.03;;;1.85;;
78772;SDS011;68111;44.728;11.290;2023-08-08T08:46:08;8.15;;;3.85;;
78772;SDS011;68111;44.728;11.290;2023-08-08T08:48:37;7.80;;;3.53;;
78772;SDS011;68111;44.728;11.290;2023-08-08T08:51:04;7.43;;;3.70;;
78772;SDS011;68111;44.728;11.290;2023-08-08T08:53:30;10.57;;;4.40;;
78772;SDS011;68111;44.728;11.290;2023-08-08T08:55:57;9.05;;;4.63;;
78772;SDS011;68111;44.728;11.290;2023-08-08T08:58:24;6.72;;;3.03;;
78772;SDS011;68111;44.728;11.290;2023-08-08T09:00:52;8.52;;;4.38;;
78772;SDS011;68111;44.728;11.290;2023-08-08T09:03:19;9.23;;;4.40;;
78772;SDS011;68111;44.728;11.290;2023-08-08T09:05:46;8.60;;;3.85;;
78772;SDS011;68111;44.728;11.290;2023-08-08T09:08:14;5.13;;;2.85;;
78772;SDS011;68111;44.728;11.290;2023-08-08T09:10:41;6.63;;;3.63;;
78772;SDS011;68111;44.728;11.290;2023-08-08T09:13:08;10.48;;;4.28;;
78772;SDS011;68111;44.728;11.290;2023-08-08T09:15:35;7.15;;;3.28;;
78772;SDS011;68111;44.728;11.290;2023-08-08T09:18:02;6.75;;;3.30;;
78772;SDS011;68111;44.728;11.290;2023-08-08T09:20:29;7.28;;;2.83;;
78772;SDS011;68111;44.728;11.290;2023-08-08T09:22:56;7.90;;;4.28;;
78772;SDS011;68111;44.728;11.290;2023-08-08T09:25:23;8.73;;;3.80;;
78772;SDS011;68111;44.728;11.290;2023-08-08T09:27:51;7.22;;;3.42;;
78772;SDS011;68111;44.728;11.290;2023-08-08T09:30:21;7.90;;;3.67;;
78772;SDS011;68111;44.728;11.290;2023-08-08T09:32:48;10.52;;;3.50;;
78772;SDS011;68111;44.728;11.290;2023-08-08T09:35:15;8.90;;;3.40;;
78772;SDS011;68111;44.728;11.290;2023-08-08T09:37:42;11.23;;;5.00;;
78772;SDS011;68111;44.728;11.290;2023-08-08T09:40:09;8.85;;;3.30;;
78772;SDS011;68111;44.728;11.290;2023-08-08T09:42:39;6.80;;;2.58;;
78772;SDS011;68111;44.728;11.290;2023-08-08T09:45:07;10.45;;;3.20;;
78772;SDS011;68111;44.728;11.290;2023-08-08T09:47:35;6.00;;;2.95;;
78772;SDS011;68111;44.728;11.290;2023-08-08T09:50:02;6.97;;;3.45;;
78772;SDS011;68111;44.728;11.290;2023-08-08T09:52:33;6.43;;;2.53;;
78772;SDS011;68111;44.728;11.290;2023-08-08T09:55:01;7.18;;;3.25;;
78772;SDS011;68111;44.728;11.290;2023-08-08T09:57:29;5.20;;;2.85;;
78772;SDS011;68111;44.728;11.290;2023-08-08T09:59:56;9.70;;;4.45;;
78772;SDS011;68111;44.728;11.290;2023-08-08T10:02:24;7.03;;;2.72;;
78772;SDS011;68111;44.728;11.290;2023-08-08T10:04:52;5.82;;;2.90;;
78772;SDS011;68111;44.728;11.290;2023-08-08T10:07:19;7.97;;;3.70;;
78772;SDS011;68111;44.728;11.290;2023-08-08T10:09:46;7.97;;;3.95;;
78772;SDS011;68111;44.728;11.290;2023-08-08T10:12:31;6.78;;;3.20;;
78772;SDS011;68111;44.728;11.290;2023-08-08T10:14:58;8.18;;;3.50;;
78772;SDS011;68111;44.728;11.290;2023-08-08T10:17:25;3.20;;;2.20;;
78772;SDS011;68111;44.728;11.290;2023-08-08T10:19:53;5.30;;;2.30;;
78772;SDS011;68111;44.728;11.290;2023-08-08T10:22:21;3.78;;;1.90;;
78772;SDS011;68111;44.728;11.290;2023-08-08T10:24:51;5.70;;;1.55;;
78772;SDS011;68111;44.728;11.290;2023-08-08T10:27:33;4.63;;;1.70;;
78772;SDS011;68111;44.728;11.290;2023-08-08T10:30:04;5.57;;;2.40;;
78772;SDS011;68111;44.728;11.290;2023-08-08T10:32:44;4.38;;;2.15;;
78772;SDS011;68111;44.728;11.290;2023-08-08T10:35:15;4.55;;;2.10;;
78772;SDS011;68111;44.728;11.290;2023-08-08T10:37:51;3.08;;;1.63;;
78772;SDS011;68111;44.728;11.290;2023-08-08T10:40:20;5.20;;;1.90;;
78772;SDS011;68111;44.728;11.290;2023-08-08T10:42:47;4.95;;;1.50;;
78772;SDS011;68111;44.728;11.290;2023-08-08T10:45:14;4.53;;;1.92;;
78772;SDS011;68111;44.728;11.290;2023-08-08T10:47:43;4.40;;;1.73;;
78772;SDS011;68111;44.728;11.290;2023-08-08T10:50:16;3.40;;;1.75;;
78772;SDS011;68111;44.728;11.290;2023-08-08T10:57:53;4.10;;;1.73;;
78772;SDS011;68111;44.728;11.290;2023-08-08T11:00:26;3.50;;;1.52;;
78772;SDS011;68111;44.728;11.290;2023-08-08T11:02:56;3.22;;;1.35;;
78772;SDS011;68111;44.728;11.290;2023-08-08T11:05:24;5.65;;;2.00;;
78772;SDS011;68111;44.728;11.290;2023-08-08T11:07:52;4.20;;;1.80;;
78772;SDS011;68111;44.728;11.290;2023-08-08T11:10:21;3.53;;;1.60;;
78772;SDS011;68111;44.728;11.290;2023-08-08T11:12:53;3.75;;;1.33;;
78772;SDS011;68111;44.728;11.290;2023-08-08T11:15:31;2.50;;;1.60;;
78772;SDS011;68111;44.728;11.290;2023-08-08T11:17:59;3.50;;;1.60;;
78772;SDS011;68111;44.728;11.290;2023-08-08T11:20:31;4.78;;;2.20;;
78772;SDS011;68111;44.728;11.290;2023-08-08T11:23:00;2.13;;;1.50;;
78772;SDS011;68111;44.728;11.290;2023-08-08T11:25:28;3.72;;;1.70;;
78772;SDS011;68111;44.728;11.290;2023-08-08T11:27:56;4.32;;;1.60;;
78772;SDS011;68111;44.728;11.290;2023-08-08T11:30:27;4.03;;;1.80;;
78772;SDS011;68111;44.728;11.290;2023-08-08T11:32:56;3.35;;;1.70;;
78772;SDS011;68111;44.728;11.290;2023-08-08T11:35:26;3.83;;;1.90;;
78772;SDS011;68111;44.728;11.290;2023-08-08T11:37:56;4.35;;;1.50;;
78772;SDS011;68111;44.728;11.290;2023-08-08T11:40:25;3.35;;;1.38;;
78772;SDS011;68111;44.728;11.290;2023-08-08T11:42:54;3.05;;;1.50;;
78772;SDS011;68111;44.728;11.290;2023-08-08T11:45:23;4.57;;;1.60;;
78772;SDS011;68111;44.728;11.290;2023-08-08T11:47:51;3.13;;;1.45;;
78772;SDS011;68111;44.728;11.290;2023-08-08T11:50:21;2.22;;;1.20;;
78772;SDS011;68111;44.728;11.290;2023-08-08T11:52:50;2.05;;;1.30;;
78772;SDS011;68111;44.728;11.290;2023-08-08T11:55:20;2.95;;;1.30;;
78772;SDS011;68111;44.728;11.290;2023-08-08T11:57:48;3.88;;;1.25;;
78772;SDS011;68111;44.728;11.290;2023-08-08T12:00:16;1.58;;;1.10;;
78772;SDS011;68111;44.728;11.290;2023-08-08T12:02:44;1.95;;;1.10;;
78772;SDS011;68111;44.728;11.290;2023-08-08T12:05:13;2.20;;;1.13;;
78772;SDS011;68111;44.728;11.290;2023-08-08T12:07:44;2.85;;;1.20;;
78772;SDS011;68111;44.728;11.290;2023-08-08T12:10:17;1.85;;;1.25;;
78772;SDS011;68111;44.728;11.290;2023-08-08T12:12:45;4.32;;;1.30;;
78772;SDS011;68111;44.728;11.290;2023-08-08T12:15:13;1.58;;;1.30;;
78772;SDS011;68111;44.728;11.290;2023-08-08T12:17:42;1.95;;;1.20;;
78772;SDS011;68111;44.728;11.290;2023-08-08T12:20:09;2.28;;;1.08;;
78772;SDS011;68111;44.728;11.290;2023-08-08T12:22:36;2.10;;;1.30;;
78772;SDS011;68111;44.728;11.290;2023-08-08T12:25:04;1.55;;;1.02;;
78772;SDS011;68111;44.728;11.290;2023-08-08T12:27:31;1.63;;;1.20;;
78772;SDS011;68111;44.728;11.290;2023-08-08T12:29:57;1.67;;;1.10;;
78772;SDS011;68111;44.728;11.290;2023-08-08T12:32:25;3.17;;;1.40;;
78772;SDS011;68111;44.728;11.290;2023-08-08T12:34:55;1.75;;;1.08;;
78772;SDS011;68111;44.728;11.290;2023-08-08T12:37:22;3.20;;;1.20;;
78772;SDS011;68111;44.728;11.290;2023-08-08T12:39:50;3.03;;;1.10;;
78772;SDS011;68111;44.728;11.290;2023-08-08T12:42:17;3.80;;;1.30;;
78772;SDS011;68111;44.728;11.290;2023-08-08T12:44:44;2.00;;;1.02;;
78772;SDS011;68111;44.728;11.290;2023-08-08T12:47:12;3.85;;;1.17;;
78772;SDS011;68111;44.728;11.290;2023-08-08T12:49:41;2.67;;;1.13;;
78772;SDS011;68111;44.728;11.290;2023-08-08T12:52:08;2.97;;;1.00;;
78772;SDS011;68111;44.728;11.290;2023-08-08T12:54:35;1.40;;;1.05;;
78772;SDS011;68111;44.728;11.290;2023-08-08T12:57:02;2.70;;;1.20;;
78772;SDS011;68111;44.728;11.290;2023-08-08T12:59:30;1.40;;;1.17;;
78772;SDS011;68111;44.728;11.290;2023-08-08T13:01:57;1.38;;;1.17;;
78772;SDS011;68111;44.728;11.290;2023-08-08T13:04:25;3.13;;;1.85;;
78772;SDS011;68111;44.728;11.290;2023-08-08T13:06:51;1.48;;;1.05;;
78772;SDS011;68111;44.728;11.290;2023-08-08T13:09:18;1.95;;;1.30;;
78772;SDS011;68111;44.728;11.290;2023-08-08T13:11:45;2.25;;;1.20;;
78772;SDS011;68111;44.728;11.290;2023-08-08T13:14:12;4.13;;;1.02;;
78772;SDS011;68111;44.728;11.290;2023-08-08T13:16:39;3.03;;;1.33;;
78772;SDS011;68111;44.728;11.290;2023-08-08T13:19:05;2.95;;;1.30;;
78772;SDS011;68111;44.728;11.290;2023-08-08T13:21:32;1.70;;;1.30;;
78772;SDS011;68111;44.728;11.290;2023-08-08T13:23:59;1.27;;;1.13;;
78772;SDS011;68111;44.728;11.290;2023-08-08T13:26:25;1.92;;;1.10;;
78772;SDS011;68111;44.728;11.290;2023-08-08T13:28:53;3.45;;;1.30;;
78772;SDS011;68111;44.728;11.290;2023-08-08T13:31:20;3.65;;;1.23;;
78772;SDS011;68111;44.728;11.290;2023-08-08T13:33:47;2.03;;;1.10;;
78772;SDS011;68111;44.728;11.290;2023-08-08T13:36:13;2.22;;;1.30;;
78772;SDS011;68111;44.728;11.290;2023-08-08T13:38:40;3.22;;;1.30;;
78772;SDS011;68111;44.728;11.290;2023-08-08T13:41:07;2.60;;;1.30;;
78772;SDS011;68111;44.728;11.290;2023-08-08T13:43:34;2.92;;;1.20;;
78772;SDS011;68111;44.728;11.290;2023-08-08T13:46:00;2.53;;;1.13;;
78772;SDS011;68111;44.728;11.290;2023-08-08T13:48:29;1.10;;;1.00;;
78772;SDS011;68111;44.728;11.290;2023-08-08T13:50:56;2.25;;;1.20;;
78772;SDS011;68111;44.728;11.290;2023-08-08T13:53:23;2.70;;;1.20;;
78772;SDS011;68111;44.728;11.290;2023-08-08T13:55:50;1.30;;;1.20;;
78772;SDS011;68111;44.728;11.290;2023-08-08T13:58:16;3.53;;;1.30;;
78772;SDS011;68111;44.728;11.290;2023-08-08T14:00:43;3.60;;;1.27;;
78772;SDS011;68111;44.728;11.290;2023-08-08T14:03:10;2.13;;;1.08;;
78772;SDS011;68111;44.728;11.290;2023-08-08T14:05:40;2.80;;;1.10;;
78772;SDS011;68111;44.728;11.290;2023-08-08T14:08:06;2.15;;;1.10;;
78772;SDS011;68111;44.728;11.290;2023-08-08T14:10:33;2.13;;;1.05;;
78772;SDS011;68111;44.728;11.290;2023-08-08T14:13:00;2.67;;;1.30;;
78772;SDS011;68111;44.728;11.290;2023-08-08T14:15:27;2.47;;;1.20;;
78772;SDS011;68111;44.728;11.290;2023-08-08T14:18:05;8.38;;;1.40;;
78772;SDS011;68111;44.728;11.290;2023-08-08T14:20:32;4.53;;;1.20;;
78772;SDS011;68111;44.728;11.290;2023-08-08T14:23:00;3.47;;;1.20;;
78772;SDS011;68111;44.728;11.290;2023-08-08T14:25:26;5.47;;;1.50;;
78772;SDS011;68111;44.728;11.290;2023-08-08T14:27:53;4.32;;;1.40;;
78772;SDS011;68111;44.728;11.290;2023-08-08T14:30:20;3.30;;;1.30;;
78772;SDS011;68111;44.728;11.290;2023-08-08T14:32:47;1.65;;;1.10;;
78772;SDS011;68111;44.728;11.290;2023-08-08T14:35:14;2.78;;;1.10;;
78772;SDS011;68111;44.728;11.290;2023-08-08T14:37:41;2.88;;;1.27;;
78772;SDS011;68111;44.728;11.290;2023-08-08T14:40:08;3.25;;;1.40;;
78772;SDS011;68111;44.728;11.290;2023-08-08T14:42:35;3.38;;;1.20;;
78772;SDS011;68111;44.728;11.290;2023-08-08T14:45:02;2.72;;;1.20;;